Details From LIMC - Milano Malpensa
To LIBD - Bari Palese Macchie
Flight Number -
Tags generated
Created
Modified
Stats Distance 455 nm / 843 km
Max Altitude 35,000 ft / 10,668 m
Waypoints 11
Social Downloads 6
Likes 0
Share VATSIM

Download

Looking for another format? Having issues loading an existing format? Contact us
Advertisement - Login to hide

Notes

Basic altitude profile: - Ascent Rate: 2500ft/min - Ascent Speed: 250kts - Cruise Altitude: 30000ft - Cruise Speed: 420kts - Descent Rate: 1500ft/min - Descent Speed: 250kts Options: - Use NATs: yes - Use PACOTS: yes - Use low airways: yes - Use high airways: no

Route

LIMC LUPOS L995 FRZ M730 ANC L612 POLYP LIBD

ID Type Via Altitude Latitude Longitude Leg Dist Tot Dist Heading (true) Name
O LIMC APT - 0 ft / 0 m 45.63061˚ 8.72811˚ - 0 nm - Milano Malpensa
LUPOS FIX - 35,000 ft / 10,668 m 44.50472˚ 10.58139˚ 103 nm 103 nm 130° / 131° -
FRZ VOR L995 (AWY-LO) 19,500 ft / 5,944 m 44.02718˚ 11.00331˚ 33 nm 137 nm 148° / 148° FIRENZE VORTAC
VALEN FIX M730 (AWY-LO) 19,500 ft / 5,944 m 43.93722˚ 11.53306˚ 23 nm 161 nm 103° / 103° -
BAGNO FIX M730 (AWY-LO) 19,500 ft / 5,944 m 43.89056˚ 11.80222˚ 11 nm 173 nm 103° / 104° -
ASDOR FIX M730 (AWY-LO) 19,500 ft / 5,944 m 43.78472˚ 12.39972˚ 26 nm 199 nm 104° / 104° -
ANC VOR M730 (AWY-LO) 19,500 ft / 5,944 m 43.58639˚ 13.47111˚ 48 nm 247 nm 104° / 105° ANCONA VOR-DME
NUTRO FIX L612 (AWY-LO) 19,500 ft / 5,944 m 43.16000˚ 14.14917˚ 39 nm 286 nm 131° / 131° -
ARPIK FIX L612 (AWY-LO) 19,500 ft / 5,944 m 42.74694˚ 14.79222˚ 37 nm 324 nm 131° / 131° -
POLYP FIX L612 (AWY-LO) 19,500 ft / 5,944 m 42.47833˚ 15.20250˚ 24 nm 348 nm 132° / 132° -
O LIBD APT - 0 ft / 0 m 41.13787˚ 16.75832˚ 106 nm 455 nm 139° / 140° Bari Palese Macchie

Altitude Profile

Advertisement - Login to hide

Weather


0- 5 10 15 20 25 30 35+ Temperature / ° C

Clouds and Precipitation
Forecast for 2017-12-15 18:00 UTC. Updated an hour ago

Ground ~20,000 ft ~40,000 ft Winds

LIMC

Details ICAO LIMC (MXP)
Name Milano Malpensa
Region Italy
Timezone Europe/Rome (UTC+1.0)
Stats Elevation 767 ft / 234 m (AMSL)
Location 45.630606° 8.728111°
Runways 2
Magnetic Variation 2.377° E

METAR

LIMC 151420Z 25008KT CAVOK 07/02 Q0997 NOSIG

Decode

TAF

TAF LIMC 151100Z 1512/1618 VRB05KT 8000 NSC BECMG 1522/1524 3000 BR TEMPO 1604/1607 1200 BCFG BECMG 1610/1612 6000

Decode

Departure Runways

ID Width Length Bearing (true) Bearing (mag) Surface Threshold Offset Overrun Length
17L 197 ft / 60 m 12,869 ft / 3,923 m 169.62° 167.24° Asphalt 3,094 ft / 943 m 0 ft / 0 m
17R 197 ft / 60 m 12,869 ft / 3,923 m 169.62° 167.24° Asphalt 0 ft / 0 m 0 ft / 0 m
35L 197 ft / 60 m 12,869 ft / 3,923 m 349.62° 347.24° Asphalt 1,329 ft / 405 m 0 ft / 0 m
35R 197 ft / 60 m 12,869 ft / 3,923 m 349.62° 347.24° Asphalt 0 ft / 0 m 0 ft / 0 m

LIBD

Details ICAO LIBD (BRI)
Name Bari Palese Macchie
Region Italy
Timezone Europe/Rome (UTC+1.0)
Stats Elevation 177 ft / 54 m (AMSL)
Location 41.137865° 16.758318°
Runways 1
Magnetic Variation 3.737° E

METAR

LIBD 151420Z 23016G33KT CAVOK 16/07 Q1004

Decode

TAF

TAF LIBD 151100Z 1512/1612 22014KT 9999 SCT030 TEMPO 1522/1606 RA= TAF LIBP 151100Z 1512/1612 22016KT 9999 SCT030 BECMG 1516/1518 34008KT TEMPO 1515/1603 4000 SHRA

Decode

Destination Runways

ID Width Length Bearing (true) Bearing (mag) Surface Threshold Offset Overrun Length
07 148 ft / 45 m 9,262 ft / 2,823 m 69.39° 65.65° Asphalt 1,257 ft / 383 m 0 ft / 0 m
25 148 ft / 45 m 9,262 ft / 2,823 m 249.42° 245.68° Asphalt 0 ft / 0 m 194 ft / 59 m

Approach Navaids

Runway Type Ident Frequency Range Bearing (true) Bearing (mag) Slope Elevation
07 Localiser BAP 111.35 MHz 18 nm / 33 km 69.25° 65.51° - 177 ft / 54 m (AMSL)
07 Glidescope BAP 111.35 MHz 10 nm / 19 km 69.25° 65.51° 3.32° 177 ft / 54 m (AMSL)
07 DME BAP 111.35 MHz 18 nm / 33 km - - - 183 ft / 56 m (AMSL)

Popular Alternatives